Time;durP1;ratioP1;P1;durP2;ratioP2;P2;SDS_P1;SDS_P2;PMS_P1;PMS_P2;Temp;Humidity;BMP_temperature;BMP_pressure;BME280_temperature;BME280_humidity;BME280_pressure;Samples;Min_cycle;Max_cycle;Signal;HPM_P1;HPM_P2
2024/04/01 00:01:32;;;;;;;33.17;23.77;;;;;;;8.52;100.00;69342.75;5092972;28;20090;-47
2024/04/01 00:03:59;;;;;;;27.98;21.40;;;;;;;8.48;100.00;69336.06;5093230;28;20487;-46
2024/04/01 00:06:25;;;;;;;27.88;21.33;;;;;;;8.41;100.00;69328.47;5092845;28;20388;-48
2024/04/01 00:08:53;;;;;;;26.15;20.45;;;;;;;8.38;100.00;69324.97;5093010;28;20060;-47
2024/04/01 00:11:19;;;;;;;27.85;21.63;;;;;;;8.34;100.00;69319.72;5092753;28;20047;-46
2024/04/01 00:13:46;;;;;;;25.05;21.77;;;;;;;8.34;100.00;69319.72;5092876;28;20104;-47
2024/04/01 00:16:13;;;;;;;27.00;22.08;;;;;;;8.33;100.00;69321.16;5092683;28;20044;-47
2024/04/01 00:18:40;;;;;;;28.70;21.30;;;;;;;8.26;100.00;69314.19;5092406;28;20439;-47
2024/04/01 00:21:06;;;;;;;23.65;20.08;;;;;;;8.22;100.00;69309.53;5088343;28;20453;-47
2024/04/01 00:23:36;;;;;;;26.55;21.42;;;;;;;8.15;100.00;69301.34;5090321;28;20051;-46
2024/04/01 00:26:02;;;;;;;26.80;20.67;;;;;;;8.14;100.00;69297.59;5092557;28;20044;-47
2024/04/01 00:28:29;;;;;;;26.13;21.88;;;;;;;8.13;100.00;69293.84;5092375;28;20458;-46
2024/04/01 00:30:55;;;;;;;29.70;22.02;;;;;;;8.09;100.00;69289.19;5091677;28;20062;-46
2024/04/01 00:33:26;;;;;;;24.30;20.60;;;;;;;8.05;100.00;69290.28;5089386;28;20096;-46
2024/04/01 00:35:52;;;;;;;26.58;22.77;;;;;;;8.05;100.00;69289.72;5090103;28;20036;-47
2024/04/01 00:38:19;;;;;;;23.55;20.10;;;;;;;8.00;100.00;69284.47;5092086;28;20046;-47
2024/04/01 00:40:46;;;;;;;25.75;20.80;;;;;;;7.94;100.00;69274.88;5092212;28;20063;-47
2024/04/01 00:43:13;;;;;;;24.48;20.45;;;;;;;7.91;100.00;69274.56;5092014;28;20040;-45
2024/04/01 00:45:42;;;;;;;26.83;21.85;;;;;;;7.89;100.00;69269.63;5091936;28;20130;-46
2024/04/01 00:48:11;;;;;;;26.67;21.38;;;;;;;7.86;100.00;69268.16;5090411;28;20048;-46
2024/04/01 00:50:41;;;;;;;25.52;22.15;;;;;;;7.84;100.00;69263.81;5088090;28;20070;-46
2024/04/01 00:53:11;;;;;;;27.52;22.35;;;;;;;7.84;100.00;69265.81;5090109;28;20043;-48
2024/04/01 00:55:42;;;;;;;24.98;21.25;;;;;;;7.82;100.00;69264.09;5091654;28;20059;-47
2024/04/01 00:58:10;;;;;;;27.08;22.55;;;;;;;7.77;100.00;69256.25;5091801;28;20083;-47
2024/04/01 01:00:37;;;;;;;25.98;22.48;;;;;;;7.73;100.00;69254.19;5091505;28;20039;-49
2024/04/01 01:03:07;;;;;;;27.55;22.17;;;;;;;7.72;100.00;69250.44;5091403;28;20495;-47
2024/04/01 01:05:33;;;;;;;23.42;20.58;;;;;;;7.66;100.00;69248.63;5089562;28;20048;-51
2024/04/01 01:08:02;;;;;;;30.50;20.80;;;;;;;7.68;100.00;69248.38;5087355;28;20644;-50
2024/04/01 01:10:30;;;;;;;25.27;21.70;;;;;;;7.70;100.00;69250.13;5074170;28;20051;-49
2024/04/01 01:13:00;;;;;;;24.05;20.95;;;;;;;7.64;100.00;69243.13;5091690;28;20140;-48
2024/04/01 01:15:27;;;;;;;24.17;21.65;;;;;;;7.65;100.00;69236.50;5090114;28;20522;-50
2024/04/01 01:17:56;;;;;;;23.83;21.08;;;;;;;7.61;100.00;69240.78;5087827;28;20056;-47
2024/04/01 01:20:23;;;;;;;25.52;20.88;;;;;;;7.56;100.00;69237.56;5090572;28;20040;-51
2024/04/01 01:22:51;;;;;;;24.25;21.38;;;;;;;7.53;100.00;69228.88;5091612;28;20512;-49
2024/04/01 01:25:17;;;;;;;27.00;21.92;;;;;;;7.55;100.00;69230.63;5091404;28;20054;-50
2024/04/01 01:27:45;;;;;;;27.23;21.05;;;;;;;7.54;100.00;69232.66;5091543;28;20063;-51
2024/04/01 01:30:15;;;;;;;23.80;20.83;;;;;;;7.52;100.00;69227.72;5091259;28;20040;-50
2024/04/01 01:32:46;;;;;;;24.45;21.50;;;;;;;7.52;100.00;69224.53;5090694;28;20047;-46
2024/04/01 01:35:14;;;;;;;27.88;21.48;;;;;;;7.50;100.00;69222.81;5088001;28;20456;-47
2024/04/01 01:37:41;;;;;;;24.60;21.50;;;;;;;7.50;100.00;69222.81;5087307;28;20066;-46
2024/04/01 01:40:09;;;;;;;24.70;21.05;;;;;;;7.49;100.00;69223.66;5091114;28;20052;-47
2024/04/01 01:42:36;;;;;;;23.58;20.65;;;;;;;7.48;100.00;69222.50;5073974;28;20052;-47
2024/04/01 01:45:03;;;;;;;24.23;20.33;;;;;;;7.45;100.00;69219.56;5074162;28;20048;-48
2024/04/01 01:47:32;;;;;;;22.58;20.17;;;;;;;7.48;100.00;69222.50;5091095;28;20044;-46
2024/04/01 01:49:59;;;;;;;23.52;21.02;;;;;;;7.48;100.00;69223.06;5090945;28;20044;-46
2024/04/01 01:52:26;;;;;;;24.10;19.52;;;;;;;7.43;100.00;69220.44;5090681;28;20036;-46
2024/04/01 01:54:52;;;;;;;22.98;19.33;;;;;;;7.41;100.00;69217.50;5090905;28;20056;-46
2024/04/01 01:57:21;;;;;;;23.45;20.48;;;;;;;7.39;100.00;69212.56;5090765;28;20055;-46
2024/04/01 01:59:47;;;;;;;25.55;20.50;;;;;;;7.39;100.00;69209.97;5091010;28;20485;-46
2024/04/01 02:02:15;;;;;;;22.83;19.60;;;;;;;7.37;100.00;69207.66;5073743;28;20063;-48
2024/04/01 02:04:42;;;;;;;23.55;20.25;;;;;;;7.37;100.00;69212.84;5090772;28;20491;-47
2024/04/01 02:07:09;;;;;;;24.08;19.25;;;;;;;7.38;100.00;69216.63;5090737;28;20099;-49
2024/04/01 02:09:35;;;;;;;21.55;18.73;;;;;;;7.34;100.00;69207.34;5090743;28;20044;-46
2024/04/01 02:12:07;;;;;;;23.95;19.17;;;;;;;7.34;100.00;69207.34;5090189;28;20036;-45
2024/04/01 02:14:35;;;;;;;25.50;19.63;;;;;;;7.30;100.00;69200.09;5073222;28;20138;-47
2024/04/01 02:17:02;;;;;;;24.33;18.77;;;;;;;7.30;100.00;69204.72;5090588;28;20457;-48
2024/04/01 02:19:29;;;;;;;24.25;18.85;;;;;;;7.31;100.00;69205.84;5090494;28;20507;-47
2024/04/01 02:21:56;;;;;;;23.15;19.98;;;;;;;7.31;100.00;69206.47;5090671;28;20040;-47
2024/04/01 02:24:25;;;;;;;23.88;18.75;;;;;;;7.30;100.00;69207.31;5090254;28;20044;-47
2024/04/01 02:26:53;;;;;;;21.70;19.13;;;;;;;7.28;100.00;69203.53;5088418;28;20063;-46
2024/04/01 02:29:22;;;;;;;24.95;19.60;;;;;;;7.27;100.00;69202.38;5070657;28;20105;-47
2024/04/01 02:31:51;;;;;;;27.08;19.45;;;;;;;7.26;100.00;69201.22;5069543;28;20060;-47
2024/04/01 02:34:17;;;;;;;23.48;19.15;;;;;;;7.25;100.00;69196.88;5090003;28;20089;-46
2024/04/01 02:36:44;;;;;;;23.83;19.10;;;;;;;7.23;100.00;69200.31;5090448;28;20040;-46
2024/04/01 02:39:16;;;;;;;22.17;17.55;;;;;;;7.24;100.00;69196.28;5090406;28;20402;-46
2024/04/01 02:41:44;;;;;;;21.10;17.88;;;;;;;7.21;100.00;69192.81;5090459;28;20063;-47
2024/04/01 02:44:10;;;;;;;21.20;17.83;;;;;;;7.23;100.00;69202.91;5075660;28;20040;-48
2024/04/01 02:46:37;;;;;;;22.45;18.42;;;;;;;7.21;100.00;69195.41;5094505;28;20475;-48
2024/04/01 02:49:05;;;;;;;21.10;17.83;;;;;;;7.20;100.00;69196.22;5094669;28;20502;-47
2024/04/01 02:51:32;;;;;;;21.23;17.98;;;;;;;7.19;100.00;69193.06;5093914;28;20040;-48
2024/04/01 02:53:58;;;;;;;22.75;18.58;;;;;;;7.16;100.00;69184.38;5094279;28;20060;-49
2024/04/01 02:56:25;;;;;;;24.73;19.63;;;;;;;7.21;100.00;69192.22;5093939;28;20795;-48
2024/04/01 02:58:52;;;;;;;22.55;18.38;;;;;;;7.18;100.00;69189.31;5077240;28;20052;-47
2024/04/01 03:01:19;;;;;;;23.15;18.33;;;;;;;7.14;100.00;69184.06;5094107;28;20036;-49
2024/04/01 03:03:45;;;;;;;21.90;17.48;;;;;;;7.13;100.00;69183.50;5093982;28;20043;-47
2024/04/01 03:06:14;;;;;;;23.13;18.52;;;;;;;7.10;100.00;69180.00;5091465;28;20437;-48
2024/04/01 03:08:40;;;;;;;23.05;18.45;;;;;;;7.10;100.00;69180.00;5089934;28;20038;-51
2024/04/01 03:11:08;;;;;;;20.73;17.83;;;;;;;7.07;100.00;69173.91;5092814;28;20043;-50
2024/04/01 03:13:35;;;;;;;23.83;18.13;;;;;;;7.06;100.00;69175.34;5091035;28;20044;-46
2024/04/01 03:16:05;;;;;;;21.25;17.65;;;;;;;7.03;100.00;69172.41;5090916;28;20040;-46
2024/04/01 03:18:31;;;;;;;21.50;17.83;;;;;;;7.04;100.00;69173.59;5093831;28;20040;-45
2024/04/01 03:20:59;;;;;;;21.38;18.00;;;;;;;7.02;100.00;69170.69;5093992;28;20482;-46
2024/04/01 03:23:26;;;;;;;20.25;17.67;;;;;;;6.99;100.00;69170.38;5093732;28;20055;-45
2024/04/01 03:25:54;;;;;;;20.83;17.10;;;;;;;6.98;100.00;69169.22;5093635;28;20040;-45
2024/04/01 03:28:20;;;;;;;22.48;17.38;;;;;;;6.99;100.00;69169.78;5093791;28;20100;-49
2024/04/01 03:30:47;;;;;;;22.48;16.73;;;;;;;6.98;100.00;69163.44;5076697;28;20044;-48
2024/04/01 03:33:15;;;;;;;20.13;16.45;;;;;;;6.93;100.00;69163.97;5093665;28;20515;-46
2024/04/01 03:35:42;;;;;;;20.67;15.82;;;;;;;6.93;100.00;69160.78;5093654;28;20487;-46
2024/04/01 03:38:10;;;;;;;20.45;17.65;;;;;;;6.91;100.00;69158.47;5093452;28;20059;-46
2024/04/01 03:40:40;;;;;;;20.25;16.10;;;;;;;6.88;100.00;69155.53;5092808;28;20044;-47
2024/04/01 03:43:06;;;;;;;17.20;15.20;;;;;;;6.87;100.00;69153.81;5089787;28;20032;-48
2024/04/01 03:45:33;;;;;;;23.20;15.90;;;;;;;6.86;100.00;69155.81;5091489;28;20497;-46
2024/04/01 03:48:00;;;;;;;18.85;14.80;;;;;;;6.87;100.00;69153.81;5093461;28;20043;-46
2024/04/01 03:50:27;;;;;;;21.25;14.90;;;;;;;6.85;100.00;69157.25;5076298;28;20487;-46
2024/04/01 03:52:53;;;;;;;17.67;14.57;;;;;;;6.85;100.00;69151.47;5093006;28;20036;-47
2024/04/01 03:55:20;;;;;;;17.33;14.05;;;;;;;6.88;100.00;69155.53;5075174;28;20082;-45
2024/04/01 03:57:48;;;;;;;18.75;14.20;;;;;;;6.86;100.00;69150.63;5090074;28;20056;-47
2024/04/01 04:00:16;;;;;;;18.58;13.63;;;;;;;6.85;100.00;69151.47;5089718;28;20048;-47
2024/04/01 04:02:42;;;;;;;16.58;12.45;;;;;;;6.84;100.00;69153.47;5072554;28;20044;-48
2024/04/01 04:05:10;;;;;;;14.50;10.93;;;;;;;6.82;100.00;69148.56;5092103;28;20047;-45
2024/04/01 04:07:36;;;;;;;14.07;11.65;;;;;;;6.82;100.00;69151.16;5089283;28;20040;-46
2024/04/01 04:10:04;;;;;;;14.60;11.45;;;;;;;6.86;100.00;69153.22;5089845;28;20051;-46
2024/04/01 04:12:31;;;;;;;16.25;11.32;;;;;;;6.85;100.00;69149.47;5091739;28;20036;-46
2024/04/01 04:15:03;;;;;;;13.85;10.75;;;;;;;6.89;100.00;69161.91;5089066;28;20051;-46
2024/04/01 04:17:29;;;;;;;16.60;11.20;;;;;;;6.88;100.00;69152.94;5091609;28;20046;-46
2024/04/01 04:19:56;;;;;;;12.23;10.43;;;;;;;6.88;100.00;69152.38;5092770;28;20148;-47
2024/04/01 04:22:22;;;;;;;14.50;10.30;;;;;;;6.85;100.00;69148.91;5075537;28;20055;-46
2024/04/01 04:24:49;;;;;;;13.52;10.70;;;;;;;6.84;100.00;69150.31;5092764;28;20040;-47
2024/04/01 04:27:16;;;;;;;14.88;10.90;;;;;;;6.81;100.00;69147.41;5092597;28;20048;-49
2024/04/01 04:29:43;;;;;;;14.30;10.43;;;;;;;6.83;100.00;69152.34;5092545;28;20083;-49
2024/04/01 04:32:12;;;;;;;14.35;9.90;;;;;;;6.81;100.00;69144.81;5092487;28;20048;-50
2024/04/01 04:34:39;;;;;;;15.13;10.30;;;;;;;6.80;100.00;69148.84;5092426;28;20379;-48
2024/04/01 04:37:06;;;;;;;16.60;10.55;;;;;;;6.80;100.00;69143.06;5092491;28;20052;-47
2024/04/01 04:39:34;;;;;;;13.43;10.70;;;;;;;6.80;100.00;69143.06;5092487;28;20036;-47
2024/04/01 04:42:00;;;;;;;13.43;10.95;;;;;;;6.80;100.00;69145.66;5075516;28;20491;-47
2024/04/01 04:44:27;;;;;;;13.25;10.25;;;;;;;6.80;100.00;69148.25;5092188;28;20467;-48
2024/04/01 04:46:53;;;;;;;14.30;10.35;;;;;;;6.79;100.00;69147.69;5092248;28;20117;-46
2024/04/01 04:49:22;;;;;;;12.23;9.75;;;;;;;6.79;100.00;69145.09;5091961;28;20048;-47
2024/04/01 04:51:48;;;;;;;12.45;9.60;;;;;;;6.79;100.00;69145.09;5092129;28;20036;-46
2024/04/01 04:54:15;;;;;;;14.38;9.52;;;;;;;6.81;100.00;69149.44;5091691;28;20032;-47
2024/04/01 04:56:41;;;;;;;13.68;9.88;;;;;;;6.80;100.00;69143.66;5091544;28;20090;-47
2024/04/01 04:59:10;;;;;;;12.65;8.93;;;;;;;6.82;100.00;69145.41;5091726;28;20498;-49
2024/04/01 05:01:36;;;;;;;11.95;8.95;;;;;;;6.83;100.00;69152.34;5091835;28;20503;-47
2024/04/01 05:04:04;;;;;;;11.43;8.52;;;;;;;6.86;100.00;69150.63;5091602;28;20426;-46
2024/04/01 05:06:32;;;;;;;11.35;8.90;;;;;;;6.86;100.00;69153.22;5089942;28;20376;-47
2024/04/01 05:08:59;;;;;;;12.77;9.13;;;;;;;6.87;100.00;69157.00;5087264;28;20082;-46
2024/04/01 05:11:25;;;;;;;10.43;7.80;;;;;;;6.87;100.00;69157.00;5090051;28;20040;-47
2024/04/01 05:13:52;;;;;;;11.80;8.52;;;;;;;6.88;100.00;69152.38;5091700;28;20168;-46
2024/04/01 05:16:18;;;;;;;10.57;7.95;;;;;;;6.89;100.00;69154.13;5091369;28;20055;-46
2024/04/01 05:18:46;;;;;;;13.32;8.40;;;;;;;6.88;100.00;69158.13;5088064;28;20120;-46
2024/04/01 05:21:12;;;;;;;11.55;7.95;;;;;;;6.89;100.00;69156.13;5088549;28;20071;-47
2024/04/01 05:23:41;;;;;;;11.73;7.82;;;;;;;6.90;100.00;69154.72;5091221;28;20040;-46
2024/04/01 05:26:08;;;;;;;10.82;7.53;;;;;;;6.90;100.00;69149.53;5074468;28;20158;-52
2024/04/01 05:28:35;;;;;;;12.15;8.68;;;;;;;6.91;100.00;69159.06;5091466;28;20044;-49
2024/04/01 05:31:02;;;;;;;12.80;8.13;;;;;;;6.93;100.00;69158.78;5074397;28;20043;-52
2024/04/01 05:33:33;;;;;;;12.50;8.43;;;;;;;6.98;100.00;69163.44;5091214;28;20474;-51
2024/04/01 05:36:02;;;;;;;10.70;7.57;;;;;;;6.98;100.00;69164.03;5091311;28;20495;-50
2024/04/01 05:38:29;;;;;;;12.50;8.50;;;;;;;7.02;100.00;69173.28;5091066;28;20083;-49
2024/04/01 05:40:56;;;;;;;12.75;7.65;;;;;;;7.03;100.00;69172.41;5071720;28;20052;-49
2024/04/01 05:43:24;;;;;;;11.40;7.90;;;;;;;7.04;100.00;69170.41;5087861;28;20085;-52
2024/04/01 05:45:50;;;;;;;13.52;8.43;;;;;;;7.04;100.00;69175.63;5070705;28;20387;-51
2024/04/01 05:48:17;;;;;;;11.63;8.63;;;;;;;7.04;100.00;69173.59;5088629;28;20185;-50
2024/04/01 05:50:48;;;;;;;10.07;7.93;;;;;;;7.05;100.00;69179.38;5090819;28;20044;-49
2024/04/01 05:53:15;;;;;;;11.80;8.25;;;;;;;7.07;100.00;69171.88;5088016;28;20495;-50
2024/04/01 05:55:41;;;;;;;11.82;8.18;;;;;;;7.09;100.00;69179.41;5087432;28;20083;-51
2024/04/01 05:58:10;;;;;;;11.95;8.40;;;;;;;7.11;100.00;69179.13;5090488;28;20135;-51
2024/04/01 06:00:37;;;;;;;10.65;7.55;;;;;;;7.17;100.00;69187.56;5090997;28;20044;-49
2024/04/01 06:03:05;;;;;;;12.85;8.65;;;;;;;7.18;100.00;69188.72;5090851;28;20502;-50
2024/04/01 06:05:31;;;;;;;11.65;8.45;;;;;;;7.23;100.00;69194.56;5090627;28;20130;-51
2024/04/01 06:07:58;;;;;;;11.02;8.23;;;;;;;7.25;100.00;69194.88;5090767;28;20048;-49
2024/04/01 06:10:26;;;;;;;10.75;8.05;;;;;;;7.28;100.00;69200.38;5073685;28;20043;-51
2024/04/01 06:12:54;;;;;;;10.98;8.02;;;;;;;7.28;100.00;69203.53;5090703;28;20509;-50
2024/04/01 06:15:22;;;;;;;11.88;7.97;;;;;;;7.29;100.00;69204.13;5090517;28;20040;-49
2024/04/01 06:17:51;;;;;;;11.35;8.60;;;;;;;7.34;100.00;69209.94;5090429;28;20040;-51
2024/04/01 06:20:18;;;;;;;12.85;8.27;;;;;;;7.45;100.00;69216.97;5090457;28;20044;-51
2024/04/01 06:22:45;;;;;;;12.20;8.05;;;;;;;7.44;100.00;69221.00;5086749;28;20046;-53
2024/04/01 06:25:11;;;;;;;10.43;7.38;;;;;;;7.47;100.00;69221.31;5086940;28;20036;-51
2024/04/01 06:27:38;;;;;;;9.88;7.55;;;;;;;7.51;100.00;69229.16;5087651;28;21217;-49
2024/04/01 06:30:05;;;;;;;12.95;7.72;;;;;;;7.52;100.00;69227.72;5087848;28;20044;-48
2024/04/01 06:32:34;;;;;;;10.48;7.53;;;;;;;7.53;100.00;69230.91;5090248;28;20522;-48
2024/04/01 06:35:00;;;;;;;11.88;7.57;;;;;;;7.55;100.00;69228.63;5090128;28;20048;-48
2024/04/01 06:37:28;;;;;;;12.93;8.15;;;;;;;7.54;100.00;69232.66;5090167;28;20055;-50
2024/04/01 06:39:54;;;;;;;13.00;8.88;;;;;;;7.53;100.00;69233.50;5086557;28;20508;-50
2024/04/01 06:42:22;;;;;;;13.23;9.60;;;;;;;7.58;100.00;69232.13;5071574;28;20056;-51
2024/04/01 06:44:48;;;;;;;13.98;10.07;;;;;;;7.60;100.00;69234.44;5073406;28;20059;-52
2024/04/01 06:47:15;;;;;;;12.82;10.20;;;;;;;7.61;100.00;69235.59;5090319;28;20064;-47
2024/04/01 06:49:42;;;;;;;12.02;9.63;;;;;;;7.68;100.00;69242.59;5089965;28;20066;-46
2024/04/01 06:52:10;;;;;;;15.48;9.52;;;;;;;7.68;100.00;69245.19;5089992;28;20036;-46
2024/04/01 06:54:36;;;;;;;12.52;8.68;;;;;;;7.69;100.00;69243.75;5086554;28;20040;-46
2024/04/01 06:57:03;;;;;;;9.98;7.57;;;;;;;7.72;100.00;69250.44;5070130;28;20627;-48
2024/04/01 06:59:30;;;;;;;14.73;8.48;;;;;;;7.74;100.00;69252.78;5087011;28;20467;-47
2024/04/01 07:01:57;;;;;;;13.18;9.13;;;;;;;7.77;100.00;69255.66;5086484;28;20495;-49
2024/04/01 07:04:23;;;;;;;10.88;7.78;;;;;;;7.80;100.00;69259.16;5086741;28;20047;-46
2024/04/01 07:06:51;;;;;;;11.65;8.07;;;;;;;7.82;100.00;69264.09;5089205;28;20114;-46
2024/04/01 07:09:17;;;;;;;11.07;7.93;;;;;;;7.85;100.00;69267.56;5085836;28;20048;-46
2024/04/01 07:11:44;;;;;;;13.88;7.63;;;;;;;7.89;100.00;69272.22;5087203;28;20040;-46
2024/04/01 07:14:11;;;;;;;10.52;6.90;;;;;;;7.93;100.00;69268.53;5089902;28;20036;-47
2024/04/01 07:16:38;;;;;;;11.55;6.70;;;;;;;7.97;100.00;69278.38;5090126;28;20503;-47
2024/04/01 07:19:04;;;;;;;10.50;5.72;;;;;;;8.00;100.00;69281.88;5090035;28;20042;-47
2024/04/01 07:21:32;;;;;;;9.55;5.93;;;;;;;8.06;100.00;69285.69;5090050;28;20958;-48
2024/04/01 07:23:59;;;;;;;7.22;5.25;;;;;;;8.10;100.00;69295.53;5090049;28;20043;-47
2024/04/01 07:26:26;;;;;;;9.77;5.50;;;;;;;8.15;100.00;69298.19;5089884;28;20051;-47
2024/04/01 07:28:55;;;;;;;7.72;4.95;;;;;;;8.18;100.00;69296.47;5090032;28;20032;-46
2024/04/01 07:31:22;;;;;;;8.43;4.70;;;;;;;8.22;100.00;69306.31;5076355;28;20613;-47
2024/04/01 07:33:48;;;;;;;7.53;4.32;;;;;;;8.25;100.00;69307.81;5093578;28;20036;-49
2024/04/01 07:36:15;;;;;;;8.13;4.78;;;;;;;8.31;100.00;69313.66;5089727;28;20044;-47
2024/04/01 07:38:41;;;;;;;9.50;4.88;;;;;;;8.33;100.00;69319.16;5090387;28;20043;-47
2024/04/01 07:41:10;;;;;;;10.38;4.43;;;;;;;8.37;100.00;69320.63;5093616;28;20548;-46
2024/04/01 07:43:36;;;;;;;6.57;4.40;;;;;;;8.39;100.00;69328.75;5076283;28;20048;-49
2024/04/01 07:46:04;;;;;;;7.32;4.22;;;;;;;8.41;100.00;69327.88;5093375;28;20498;-50
2024/04/01 07:48:30;;;;;;;10.88;4.43;;;;;;;8.44;100.00;69328.78;5093166;28;20347;-47
2024/04/01 07:51:02;;;;;;;7.65;4.78;;;;;;;8.45;100.00;69335.16;5093318;28;20097;-48
2024/04/01 07:53:28;;;;;;;7.95;4.93;;;;;;;8.48;100.00;69335.47;5091600;28;20044;-47
2024/04/01 07:55:55;;;;;;;8.32;5.20;;;;;;;8.50;100.00;69341.00;5089596;28;20044;-48
2024/04/01 07:58:23;;;;;;;8.52;5.18;;;;;;;8.53;100.00;69343.91;5092241;28;20375;-50
2024/04/01 08:00:51;;;;;;;8.30;4.63;;;;;;;8.59;100.00;69350.91;5090738;28;20521;-52
2024/04/01 08:03:17;;;;;;;9.63;4.75;;;;;;;8.61;100.00;69348.59;5089687;28;20047;-51
2024/04/01 08:05:44;;;;;;;8.10;4.57;;;;;;;8.63;100.00;69356.16;5076091;28;20047;-49
2024/04/01 08:08:11;;;;;;;7.90;4.95;;;;;;;8.63;100.00;69350.94;5092723;28;20047;-52
2024/04/01 08:10:38;;;;;;;8.65;4.90;;;;;;;8.69;100.00;69362.56;5092879;28;20372;-50
2024/04/01 08:13:05;;;;;;;8.48;4.80;;;;;;;8.74;100.00;69363.19;5090691;28;20051;-49
2024/04/01 08:15:33;;;;;;;6.95;4.80;;;;;;;8.76;100.00;69364.94;5089451;28;20118;-51
2024/04/01 08:17:59;;;;;;;10.73;5.45;;;;;;;8.79;100.00;69371.03;5092551;28;20054;-52
2024/04/01 08:20:26;;;;;;;7.90;5.13;;;;;;;8.79;100.00;69374.22;5075762;28;20415;-52
2024/04/01 08:22:52;;;;;;;9.23;5.00;;;;;;;8.81;100.00;69375.97;5073986;28;20080;-50
2024/04/01 08:25:19;;;;;;;7.53;5.25;;;;;;;8.85;100.00;69377.44;5089372;28;20036;-52
2024/04/01 08:27:48;;;;;;;8.43;5.70;;;;;;;8.88;100.00;69378.91;5089616;28;20040;-51
2024/04/01 08:30:16;;;;;;;10.98;5.32;;;;;;;8.88;100.00;69380.94;5089444;28;20044;-52
2024/04/01 08:32:43;;;;;;;8.38;5.50;;;;;;;8.91;100.00;69384.44;5089228;28;20040;-53
2024/04/01 08:35:11;;;;;;;8.68;5.53;;;;;;;8.95;100.00;69392.28;5088453;28;20040;-53
2024/04/01 08:37:37;;;;;;;8.32;5.63;;;;;;;8.95;100.00;69387.06;5090442;28;20051;-52
2024/04/01 08:40:05;;;;;;;8.50;5.38;;;;;;;8.98;100.00;69392.59;5089597;28;20052;-53
2024/04/01 08:42:36;;;;;;;9.15;5.88;;;;;;;9.00;100.00;69396.94;5088709;28;20040;-50
2024/04/01 08:45:06;;;;;;;8.27;5.90;;;;;;;9.00;100.00;69392.31;5088474;28;20130;-49
2024/04/01 08:47:36;;;;;;;9.18;5.97;;;;;;;9.02;100.00;69394.66;5092346;28;20463;-50
2024/04/01 08:50:08;;;;;;;9.73;6.45;;;;;;;9.05;100.00;69397.56;5090942;28;20052;-52
2024/04/01 08:52:41;;;;;;;10.10;6.15;;;;;;;9.09;100.00;69405.41;5070742;28;20828;-52
2024/04/01 08:55:08;;;;;;;11.05;6.25;;;;;;;9.10;100.00;69403.41;5073817;28;20554;-50
2024/04/01 08:57:36;;;;;;;9.80;6.43;;;;;;;9.09;100.00;69410.03;5092091;28;20039;-50
2024/04/01 09:00:05;;;;;;;11.00;6.80;;;;;;;9.11;100.00;69404.56;5091994;28;20056;-51
2024/04/01 09:02:31;;;;;;;11.18;7.18;;;;;;;9.10;100.00;69408.59;5090668;28;20048;-50
2024/04/01 09:04:58;;;;;;;9.05;6.47;;;;;;;9.13;100.00;69404.28;5088367;28;20481;-53
2024/04/01 09:07:26;;;;;;;10.10;6.97;;;;;;;9.17;100.00;69414.16;5070802;28;20075;-53
2024/04/01 09:09:53;;;;;;;10.63;7.20;;;;;;;9.20;100.00;69420.25;5091039;28;20040;-52
2024/04/01 09:12:21;;;;;;;11.05;7.72;;;;;;;9.18;100.00;69415.31;5091612;28;20135;-52
2024/04/01 09:14:48;;;;;;;10.80;8.68;;;;;;;9.18;100.00;69410.13;5091871;28;20421;-49
2024/04/01 09:17:23;;;;;;;10.95;8.43;;;;;;;9.21;100.00;69415.63;5091601;28;20089;-50
2024/04/01 09:19:50;;;;;;;11.68;8.57;;;;;;;9.25;100.00;69423.47;5091645;28;20088;-53
2024/04/01 09:22:16;;;;;;;11.35;8.77;;;;;;;9.28;100.00;69429.59;5074651;28;20040;-51
2024/04/01 09:24:45;;;;;;;12.50;9.85;;;;;;;9.33;100.00;69429.06;5090973;28;20372;-52
2024/04/01 09:27:11;;;;;;;12.98;9.43;;;;;;;9.37;100.00;69436.91;5088220;28;20376;-50
2024/04/01 09:29:38;;;;;;;10.60;8.85;;;;;;;9.38;100.00;69437.47;5089772;28;20036;-51
2024/04/01 09:32:05;;;;;;;11.75;8.95;;;;;;;9.46;100.00;69446.78;5091381;28;20040;-51
2024/04/01 09:34:32;;;;;;;12.45;8.82;;;;;;;9.43;100.00;69443.31;5091278;28;20044;-52
2024/04/01 09:36:58;;;;;;;12.93;9.75;;;;;;;9.44;100.00;69444.47;5091209;28;20032;-51
2024/04/01 09:39:26;;;;;;;11.98;9.82;;;;;;;9.50;100.00;69451.47;5091159;28;20044;-51
2024/04/01 09:41:54;;;;;;;12.60;9.32;;;;;;;9.55;100.00;69457.28;5091188;28;20125;-53
2024/04/01 09:44:24;;;;;;;11.90;8.02;;;;;;;9.53;100.00;69454.38;5090787;28;20048;-51
2024/04/01 09:46:54;;;;;;;11.02;7.55;;;;;;;9.58;100.00;69457.59;5090944;28;20044;-52
2024/04/01 09:49:21;;;;;;;10.52;7.72;;;;;;;9.59;100.00;69464.56;5071013;28;20066;-52
2024/04/01 09:51:47;;;;;;;12.25;8.43;;;;;;;9.64;100.00;69469.81;5086877;28;20050;-51
2024/04/01 09:54:14;;;;;;;10.27;7.95;;;;;;;9.69;100.00;69469.84;5090838;28;20051;-46
2024/04/01 09:57:07;;;;;;;10.45;7.85;;;;;;;9.74;100.00;69476.25;5088963;28;20060;-49
2024/04/01 09:59:53;;;;;;;;;;;;;;;9.80;100.00;69482.69;5088629;28;20044;-46
2024/04/01 10:02:56;;;;;;;10.57;7.38;;;;;;;9.81;100.00;69484.44;5090744;28;19927;-46
2024/04/01 10:06:00;;;;;;;9.32;6.90;;;;;;;9.83;100.00;69491.41;5037766;28;20055;-49
2024/04/01 10:08:44;;;;;;;;;;;;;;;9.86;100.00;69489.69;5080763;28;20538;-47
2024/04/01 10:11:38;;;;;;;10.60;7.45;;;;;;;9.90;100.00;69496.38;5090445;28;19920;-48
2024/04/01 10:14:43;;;;;;;10.48;7.28;;;;;;;9.96;100.00;69498.16;5091032;28;20467;-46
2024/04/01 10:17:35;;;;;;;9.98;6.80;;;;;;;10.03;100.00;69510.97;5073651;28;20060;-46
2024/04/01 10:20:45;;;;;;;10.77;7.37;;;;;;;10.13;100.00;69525.25;5090719;28;20040;-47
2024/04/01 10:23:47;;;;;;;9.98;7.55;;;;;;;10.17;100.00;69527.31;5090711;28;20051;-46
2024/04/01 10:26:50;;;;;;;10.55;7.63;;;;;;;10.20;100.00;69527.59;5090633;28;20043;-47
2024/04/01 10:29:54;;;;;;;11.15;7.72;;;;;;;10.31;100.00;69541.00;5087081;28;20059;-48
2024/04/01 10:32:52;;;;;;;12.23;8.00;;;;;;;10.44;100.00;69555.03;5086528;28;20122;-45
2024/04/01 10:35:54;;;;;;;10.80;8.32;;;;;;;10.50;100.00;69559.44;5061237;28;20060;-46
2024/04/01 10:38:47;;;;;;;9.40;6.80;;;;;;;10.49;100.00;69558.84;5088000;28;20040;-46
2024/04/01 10:41:49;;;;;;;11.00;6.85;;;;;;;10.57;100.00;69575.44;5087787;28;20047;-47
2024/04/01 10:44:52;;;;;;;11.18;7.20;;;;;;;10.65;100.00;69582.16;5088367;28;20132;-47
2024/04/01 10:47:43;;;;;;;8.52;6.50;;;;;;;10.74;100.00;69592.06;5090551;28;20403;-47
2024/04/01 10:50:30;;;;;;;9.00;6.00;;;;;;;10.78;100.00;69591.53;5090271;28;20047;-47
2024/04/01 10:53:24;;;;;;;10.35;6.28;;;;;;;10.83;100.00;69602.59;5073274;28;20181;-47
2024/04/01 10:56:30;;;;;;;8.98;5.50;;;;;;;10.93;100.00;69605.84;5090153;28;20048;-47
2024/04/01 10:59:29;;;;;;;8.80;6.28;;;;;;;10.97;100.00;69615.72;5090179;28;20044;-46
2024/04/01 11:02:16;;;;;;;8.32;6.03;;;;;;;11.02;100.00;69626.22;5090180;28;20442;-47
2024/04/01 11:04:54;;;;;;;8.52;5.75;;;;;;;11.09;100.00;69628.59;5091639;28;20521;-46
2024/04/01 11:07:39;;;;;;;7.70;5.93;;;;;;;11.03;100.00;69616.34;5094056;28;20046;-47
2024/04/01 11:10:14;;;;;;;10.23;6.35;;;;;;;11.06;100.00;69627.69;5094240;28;20084;-48
2024/04/01 11:12:48;;;;;;;9.05;7.00;;;;;;;11.12;100.00;69637.88;5094010;28;20050;-48
2024/04/01 11:15:17;;;;;;;9.98;7.20;;;;;;;11.16;100.00;69639.94;5094121;28;20047;-53
2024/04/01 11:17:44;;;;;;;11.45;6.85;;;;;;;11.23;100.00;69649.56;5093751;28;20048;-54
2024/04/01 11:20:28;;;;;;;11.68;6.93;;;;;;;11.22;100.00;69643.78;5093845;28;20038;-53
2024/04/01 11:23:10;;;;;;;8.65;6.07;;;;;;;11.20;100.00;69644.03;5094018;28;20047;-53
2024/04/01 11:25:44;;;;;;;10.20;6.95;;;;;;;11.12;100.00;69632.66;5093696;28;20044;-53
2024/04/01 11:28:43;;;;;;;9.45;6.47;;;;;;;11.18;100.00;69646.94;5093056;28;20048;-54
2024/04/01 11:31:18;;;;;;;8.88;6.65;;;;;;;11.18;100.00;69633.88;5093570;28;20109;-53
2024/04/01 11:33:51;;;;;;;10.88;7.70;;;;;;;11.21;100.00;69647.81;5093364;28;20398;-54
2024/04/01 11:36:29;;;;;;;9.32;6.88;;;;;;;11.10;100.00;69632.94;5093700;28;20094;-52